Time;durP1;ratioP1;P1;durP2;ratioP2;P2;SDS_P1;SDS_P2;PMS_P1;PMS_P2;Temp;Humidity;BMP_temperature;BMP_pressure;BME280_temperature;BME280_humidity;BME280_pressure;Samples;Min_cycle;Max_cycle;Signal;HPM_P1;HPM_P2
2024/03/07 00:00:47;;;;;;;30.90;21.02;;;6.50;99.90;;;;;;5012344;28;20198;-74
2024/03/07 00:03:13;;;;;;;31.20;20.90;;;6.40;99.90;;;;;;5035636;28;20192;-74
2024/03/07 00:05:39;;;;;;;30.65;20.60;;;6.40;99.90;;;;;;5030883;28;20206;-74
2024/03/07 00:08:06;;;;;;;31.52;21.38;;;6.40;99.90;;;;;;5034300;28;20251;-73
2024/03/07 00:10:31;;;;;;;31.70;20.70;;;6.40;99.90;;;;;;5034095;28;20195;-74
2024/03/07 00:12:57;;;;;;;34.40;21.55;;;6.40;99.90;;;;;;5031025;28;20203;-75
2024/03/07 00:15:23;;;;;;;28.52;19.92;;;6.40;99.90;;;;;;5025211;28;20217;-74
2024/03/07 00:17:49;;;;;;;32.30;19.77;;;6.40;99.90;;;;;;5034176;28;20301;-73
2024/03/07 00:20:15;;;;;;;30.88;21.48;;;6.40;99.90;;;;;;5010268;28;20200;-74
2024/03/07 00:22:41;;;;;;;33.78;20.48;;;6.30;99.90;;;;;;5034790;28;20183;-73
2024/03/07 00:25:09;;;;;;;32.55;21.30;;;6.30;99.90;;;;;;5033944;28;20199;-74
2024/03/07 00:27:35;;;;;;;31.70;20.60;;;6.30;99.90;;;;;;5030590;28;20207;-74
2024/03/07 00:30:02;;;;;;;27.40;19.15;;;6.30;99.90;;;;;;5032485;28;20550;-73
2024/03/07 00:32:29;;;;;;;29.95;19.90;;;6.30;99.90;;;;;;5028654;28;20195;-74
2024/03/07 00:34:58;;;;;;;34.30;21.23;;;6.30;99.90;;;;;;5031566;28;20210;-73
2024/03/07 00:37:25;;;;;;;29.02;20.20;;;6.30;99.90;;;;;;5031968;28;20658;-74
2024/03/07 00:39:51;;;;;;;32.35;19.63;;;6.30;99.90;;;;;;5012730;28;20286;-74
2024/03/07 00:42:17;;;;;;;30.02;19.80;;;6.30;99.90;;;;;;5027128;28;20268;-73
2024/03/07 00:44:43;;;;;;;29.80;19.85;;;6.30;99.90;;;;;;5032842;28;20729;-73
2024/03/07 00:47:09;;;;;;;28.35;19.17;;;6.30;99.90;;;;;;5031120;28;20264;-74
2024/03/07 00:49:34;;;;;;;32.25;20.05;;;6.30;99.90;;;;;;5029358;28;20180;-73
2024/03/07 00:52:01;;;;;;;28.90;19.63;;;6.30;99.90;;;;;;5033556;28;20226;-75
2024/03/07 00:54:26;;;;;;;27.15;18.48;;;6.30;99.90;;;;;;5030621;28;21004;-75
2024/03/07 00:56:52;;;;;;;30.73;19.25;;;6.30;99.90;;;;;;5031992;28;20238;-74
2024/03/07 00:59:19;;;;;;;29.80;19.85;;;6.30;99.90;;;;;;5025786;28;20221;-73
2024/03/07 01:01:45;;;;;;;30.30;19.92;;;6.30;99.90;;;;;;5034308;28;20269;-73
2024/03/07 01:04:11;;;;;;;29.55;20.20;;;6.30;99.90;;;;;;5029932;28;20175;-73
2024/03/07 01:06:37;;;;;;;30.63;20.15;;;6.30;99.90;;;;;;5031225;28;20682;-73
2024/03/07 01:09:04;;;;;;;29.75;19.25;;;6.20;99.90;;;;;;5024416;28;20184;-73
2024/03/07 01:11:30;;;;;;;29.27;19.67;;;6.20;99.90;;;;;;5035012;28;20694;-76
2024/03/07 01:13:56;;;;;;;29.55;19.73;;;6.20;99.90;;;;;;5007340;28;20278;-74
2024/03/07 01:16:22;;;;;;;30.35;19.65;;;6.10;99.90;;;;;;5035502;28;20183;-73
2024/03/07 01:18:49;;;;;;;30.17;19.83;;;6.10;99.90;;;;;;5024449;28;20188;-75
2024/03/07 01:21:15;;;;;;;34.42;20.02;;;6.10;99.90;;;;;;5034775;28;20199;-73
2024/03/07 01:23:40;;;;;;;30.08;20.08;;;6.00;99.90;;;;;;5026504;28;20188;-73
2024/03/07 01:26:08;;;;;;;32.42;19.05;;;6.00;99.90;;;;;;5026734;28;20261;-73
2024/03/07 01:28:34;;;;;;;29.95;18.52;;;5.90;99.90;;;;;;5030697;28;20200;-74
2024/03/07 01:31:00;;;;;;;29.75;20.45;;;5.80;99.90;;;;;;5028035;28;20194;-74
2024/03/07 01:33:26;;;;;;;28.23;19.70;;;5.70;99.90;;;;;;5029370;28;20190;-74
2024/03/07 01:35:52;;;;;;;30.55;20.35;;;5.70;99.90;;;;;;5024544;28;20196;-74
2024/03/07 01:38:18;;;;;;;30.00;19.80;;;5.60;99.90;;;;;;5031228;28;20237;-74
2024/03/07 01:40:44;;;;;;;30.38;19.95;;;5.50;99.90;;;;;;5033912;28;20230;-74
2024/03/07 01:43:10;;;;;;;30.55;20.20;;;5.50;99.90;;;;;;5030832;28;20204;-74
2024/03/07 01:45:39;;;;;;;33.35;20.55;;;5.40;99.90;;;;;;5024152;28;20222;-74
2024/03/07 01:48:07;;;;;;;30.35;20.30;;;5.40;99.90;;;;;;5038208;28;20230;-73
2024/03/07 01:50:34;;;;;;;36.95;20.20;;;5.30;99.90;;;;;;5037498;28;20187;-74
2024/03/07 01:53:00;;;;;;;32.28;20.27;;;5.30;99.90;;;;;;5027311;28;20689;-74
2024/03/07 01:55:27;;;;;;;32.10;20.92;;;5.20;99.90;;;;;;5035603;28;20287;-73
2024/03/07 01:57:58;;;;;;;32.88;20.10;;;5.20;99.90;;;;;;5037025;28;20199;-73
2024/03/07 02:00:24;;;;;;;29.17;20.13;;;5.10;99.90;;;;;;5035936;28;20187;-74
2024/03/07 02:02:50;;;;;;;29.38;20.63;;;5.10;99.90;;;;;;5010838;28;20196;-73
2024/03/07 02:05:16;;;;;;;29.88;20.50;;;5.00;99.90;;;;;;5007527;28;20199;-74
2024/03/07 02:07:43;;;;;;;31.40;20.75;;;5.00;99.90;;;;;;5033253;28;21259;-74
2024/03/07 02:10:10;;;;;;;30.23;20.65;;;5.00;99.90;;;;;;5036904;28;20195;-74
2024/03/07 02:12:36;;;;;;;31.48;21.15;;;4.90;99.90;;;;;;5030234;28;20233;-74
2024/03/07 02:15:02;;;;;;;27.98;19.40;;;4.90;99.90;;;;;;5024749;28;20285;-73
2024/03/07 02:17:28;;;;;;;37.25;20.45;;;4.90;99.90;;;;;;5037491;28;20551;-74
2024/03/07 02:19:54;;;;;;;31.52;20.20;;;4.80;99.90;;;;;;5040470;28;20191;-74
2024/03/07 02:22:20;;;;;;;32.35;20.05;;;4.80;99.90;;;;;;5025756;28;20195;-74
2024/03/07 02:24:46;;;;;;;30.27;20.40;;;4.70;99.90;;;;;;5028149;28;20184;-73
2024/03/07 02:27:14;;;;;;;30.95;20.70;;;4.80;99.90;;;;;;5010491;28;20242;-74
2024/03/07 02:29:41;;;;;;;32.17;20.33;;;4.70;99.90;;;;;;5014213;28;20378;-73
2024/03/07 02:32:07;;;;;;;31.70;20.27;;;4.70;99.90;;;;;;5009832;28;20192;-74
2024/03/07 02:34:34;;;;;;;32.00;20.45;;;4.70;99.90;;;;;;5037392;28;20552;-74
2024/03/07 02:36:59;;;;;;;34.08;20.17;;;4.60;99.90;;;;;;5030540;28;20568;-74
2024/03/07 02:39:25;;;;;;;27.92;19.85;;;4.60;99.90;;;;;;5036755;28;20191;-73
2024/03/07 02:41:51;;;;;;;31.63;20.55;;;4.60;99.90;;;;;;5035611;28;20273;-74
2024/03/07 02:44:17;;;;;;;31.20;19.90;;;4.60;99.90;;;;;;5033984;28;21191;-74
2024/03/07 02:46:43;;;;;;;31.33;19.90;;;4.50;99.90;;;;;;5037644;28;20203;-74
2024/03/07 02:49:09;;;;;;;32.20;19.75;;;4.50;99.90;;;;;;5033873;28;20191;-74
2024/03/07 02:51:35;;;;;;;29.30;19.45;;;4.50;99.90;;;;;;5034780;28;20184;-74
2024/03/07 02:54:02;;;;;;;31.92;20.60;;;4.50;99.90;;;;;;5033220;28;20593;-74
2024/03/07 02:56:28;;;;;;;31.30;19.73;;;4.50;99.90;;;;;;5035042;28;20199;-74
2024/03/07 02:58:54;;;;;;;31.27;19.77;;;4.40;99.90;;;;;;5034348;28;20207;-74
2024/03/07 03:01:20;;;;;;;30.83;20.48;;;4.40;99.90;;;;;;5028130;28;20198;-74
2024/03/07 03:03:46;;;;;;;29.20;20.88;;;4.40;99.90;;;;;;5026676;28;20310;-73
2024/03/07 03:06:11;;;;;;;32.00;20.52;;;4.40;99.90;;;;;;5038784;28;20198;-74
2024/03/07 03:08:37;;;;;;;32.60;19.77;;;4.30;99.90;;;;;;5031879;28;20214;-73
2024/03/07 03:11:03;;;;;;;30.00;20.33;;;4.30;99.90;;;;;;5028214;28;20692;-73
2024/03/07 03:13:29;;;;;;;31.48;20.80;;;4.30;99.90;;;;;;5034820;28;20188;-74
2024/03/07 03:15:56;;;;;;;29.20;20.13;;;4.30;99.90;;;;;;5024676;28;20287;-73
2024/03/07 03:18:25;;;;;;;32.58;20.83;;;4.30;99.90;;;;;;5023579;28;20246;-73
2024/03/07 03:20:52;;;;;;;31.98;21.00;;;4.30;99.90;;;;;;5046299;28;20361;-73
2024/03/07 03:23:18;;;;;;;32.53;20.52;;;4.20;99.90;;;;;;5028957;28;20286;-75
2024/03/07 03:25:45;;;;;;;31.95;20.60;;;4.20;99.90;;;;;;5035482;28;20287;-74
2024/03/07 03:28:11;;;;;;;32.70;21.05;;;4.20;99.90;;;;;;5029288;28;21134;-75
2024/03/07 03:30:41;;;;;;;32.42;21.50;;;4.20;99.90;;;;;;5034431;28;20506;-74
2024/03/07 03:33:07;;;;;;;31.50;20.30;;;4.10;99.90;;;;;;5033335;28;20575;-73
2024/03/07 03:35:39;;;;;;;31.60;20.83;;;4.10;99.90;;;;;;5033713;28;20199;-76
2024/03/07 03:38:06;;;;;;;31.88;20.95;;;4.10;99.90;;;;;;5032516;28;20593;-73
2024/03/07 03:40:32;;;;;;;30.92;20.90;;;4.10;99.90;;;;;;5026850;28;20657;-73
2024/03/07 03:42:58;;;;;;;28.30;20.05;;;4.10;99.90;;;;;;5035523;28;20832;-74
2024/03/07 03:45:25;;;;;;;33.67;21.25;;;4.10;99.90;;;;;;5033121;28;20240;-74
2024/03/07 03:47:51;;;;;;;32.33;21.15;;;4.00;99.90;;;;;;5026408;28;20303;-75
2024/03/07 03:50:18;;;;;;;29.38;20.50;;;4.00;99.90;;;;;;5027381;28;20320;-73
2024/03/07 03:52:44;;;;;;;31.52;20.13;;;4.00;99.90;;;;;;5033795;28;20651;-74
2024/03/07 03:55:11;;;;;;;32.28;22.13;;;4.00;99.90;;;;;;5033070;28;20180;-73
2024/03/07 03:57:39;;;;;;;30.92;20.42;;;4.00;99.90;;;;;;5037520;28;20188;-74
2024/03/07 04:00:12;;;;;;;31.52;21.42;;;4.00;99.90;;;;;;5032973;28;20192;-73
2024/03/07 04:02:47;;;;;;;30.92;20.10;;;3.90;99.90;;;;;;5008900;28;20191;-74
2024/03/07 04:05:14;;;;;;;29.75;19.80;;;3.90;99.90;;;;;;5030345;28;20183;-73
2024/03/07 04:07:44;;;;;;;31.67;20.67;;;3.90;99.90;;;;;;5032841;28;20263;-73
2024/03/07 04:10:11;;;;;;;33.05;20.23;;;3.90;99.90;;;;;;5030220;28;20176;-73
2024/03/07 04:12:39;;;;;;;33.22;21.08;;;3.80;99.90;;;;;;5033004;28;20253;-72
2024/03/07 04:15:10;;;;;;;33.58;21.42;;;3.80;99.90;;;;;;5033980;28;20958;-72
2024/03/07 04:17:37;;;;;;;33.88;21.27;;;3.80;99.90;;;;;;5021200;28;20967;-73
2024/03/07 04:20:07;;;;;;;33.40;20.63;;;3.80;99.90;;;;;;5027891;28;20207;-74
2024/03/07 04:22:34;;;;;;;31.77;21.10;;;3.70;99.90;;;;;;5032579;28;20193;-74
2024/03/07 04:25:02;;;;;;;32.22;21.25;;;3.70;99.90;;;;;;5032888;28;20245;-75
2024/03/07 04:27:28;;;;;;;33.88;21.80;;;3.60;99.90;;;;;;5033273;28;20284;-75
2024/03/07 04:29:54;;;;;;;29.90;21.23;;;3.60;99.90;;;;;;5032151;28;20184;-75
2024/03/07 04:32:21;;;;;;;34.83;22.60;;;3.60;99.90;;;;;;5031653;28;20219;-73
2024/03/07 04:34:47;;;;;;;33.90;21.15;;;3.50;99.90;;;;;;5025455;28;20250;-75
2024/03/07 04:37:12;;;;;;;36.08;23.58;;;3.50;99.90;;;;;;5029193;28;20184;-75
2024/03/07 04:39:39;;;;;;;34.55;23.17;;;3.50;99.90;;;;;;5031402;28;20196;-75
2024/03/07 04:42:06;;;;;;;35.33;23.63;;;3.40;99.90;;;;;;5030470;28;20198;-74
2024/03/07 04:44:35;;;;;;;36.08;23.27;;;3.40;99.90;;;;;;5027225;28;20179;-72
2024/03/07 04:47:01;;;;;;;37.90;24.85;;;3.40;99.90;;;;;;5033023;28;20215;-75
2024/03/07 04:49:31;;;;;;;35.75;24.35;;;3.40;99.90;;;;;;5034348;28;20183;-76
2024/03/07 04:51:58;;;;;;;36.22;24.25;;;3.40;99.90;;;;;;5033270;28;20207;-73
2024/03/07 04:54:25;;;;;;;37.60;24.40;;;3.30;99.90;;;;;;5035768;28;20727;-74
2024/03/07 04:56:52;;;;;;;36.80;24.15;;;3.30;99.90;;;;;;5034859;28;20278;-74
2024/03/07 04:59:19;;;;;;;37.90;25.02;;;3.30;99.90;;;;;;5029623;28;20230;-74
2024/03/07 05:01:46;;;;;;;38.00;26.00;;;3.20;99.90;;;;;;5029781;28;20191;-73
2024/03/07 05:04:13;;;;;;;38.80;25.27;;;3.20;99.90;;;;;;5027572;28;20207;-75
2024/03/07 05:06:39;;;;;;;41.97;25.48;;;3.20;99.90;;;;;;5036805;28;20314;-75
2024/03/07 05:09:08;;;;;;;39.45;26.38;;;3.20;99.90;;;;;;5030306;28;20221;-72
2024/03/07 05:11:35;;;;;;;37.10;24.98;;;3.20;99.90;;;;;;5036463;28;20571;-72
2024/03/07 05:14:01;;;;;;;38.85;26.15;;;3.20;99.90;;;;;;5032823;28;20206;-71
2024/03/07 05:16:28;;;;;;;45.28;26.25;;;3.20;99.90;;;;;;5037368;28;20192;-74
2024/03/07 05:18:55;;;;;;;43.05;26.80;;;3.20;99.90;;;;;;5020051;28;20671;-72
2024/03/07 05:23:59;;;;;;;41.67;26.67;;;3.10;99.90;;;;;;5031411;28;20634;-76
2024/03/07 05:26:33;;;;;;;40.38;26.02;;;3.10;99.90;;;;;;5040354;28;20215;-73
2024/03/07 05:29:09;;;;;;;42.33;26.40;;;3.10;99.90;;;;;;5038971;28;20191;-75
2024/03/07 05:31:45;;;;;;;48.92;29.50;;;3.00;99.90;;;;;;5034642;28;20406;-74
2024/03/07 05:34:12;;;;;;;41.70;26.95;;;3.00;99.90;;;;;;5034487;28;20257;-73
2024/03/07 05:36:45;;;;;;;43.90;28.15;;;3.00;99.90;;;;;;5036957;28;20193;-73
2024/03/07 05:39:15;;;;;;;46.88;28.75;;;3.00;99.90;;;;;;5039406;28;20341;-74
2024/03/07 05:41:44;;;;;;;43.40;27.75;;;3.00;99.90;;;;;;5017976;28;20221;-73
2024/03/07 05:44:10;;;;;;;47.53;29.90;;;3.00;99.90;;;;;;5041092;28;20195;-74
2024/03/07 05:46:46;;;;;;;48.25;29.90;;;2.90;99.90;;;;;;5035663;28;20218;-73
2024/03/07 05:49:13;;;;;;;48.05;28.77;;;3.00;99.90;;;;;;5037995;28;20556;-74
2024/03/07 05:51:41;;;;;;;47.72;31.15;;;2.90;99.90;;;;;;5028152;28;20278;-74
2024/03/07 05:54:08;;;;;;;49.83;30.75;;;2.90;99.90;;;;;;5039037;28;20646;-74
2024/03/07 05:56:37;;;;;;;50.80;33.53;;;2.90;99.90;;;;;;5019388;28;20203;-73
2024/03/07 05:59:09;;;;;;;51.50;32.17;;;2.90;99.90;;;;;;5037525;28;20229;-73
2024/03/07 06:01:36;;;;;;;49.70;31.52;;;2.90;99.90;;;;;;5038845;28;20183;-73
2024/03/07 06:04:02;;;;;;;53.58;33.63;;;2.80;99.90;;;;;;5027445;28;20223;-72
2024/03/07 06:06:31;;;;;;;54.60;33.10;;;2.80;99.90;;;;;;5040008;28;20225;-73
2024/03/07 06:08:58;;;;;;;61.05;34.47;;;2.80;99.90;;;;;;5036464;28;20196;-73
2024/03/07 06:11:24;;;;;;;55.78;34.20;;;2.80;99.90;;;;;;5033336;28;20180;-74
2024/03/07 06:13:49;;;;;;;55.70;34.55;;;2.80;99.90;;;;;;5037240;28;20187;-73
2024/03/07 06:16:15;;;;;;;56.47;33.40;;;2.80;99.90;;;;;;5035746;28;20184;-74
2024/03/07 06:18:41;;;;;;;55.28;32.58;;;2.80;99.90;;;;;;5030211;28;20380;-75
2024/03/07 06:21:08;;;;;;;61.90;36.78;;;2.70;99.90;;;;;;5031146;28;20538;-73
2024/03/07 06:23:34;;;;;;;61.67;34.28;;;2.80;99.90;;;;;;5031688;28;20565;-74
2024/03/07 06:26:00;;;;;;;71.68;39.20;;;2.70;99.90;;;;;;5028323;28;20215;-75
2024/03/07 06:28:29;;;;;;;72.55;39.20;;;2.80;99.90;;;;;;5026792;28;20281;-74
2024/03/07 06:30:55;;;;;;;71.22;37.25;;;2.80;99.90;;;;;;5033492;28;20446;-75
2024/03/07 06:33:21;;;;;;;72.95;40.17;;;2.90;99.90;;;;;;5035683;28;20199;-74
2024/03/07 06:35:48;;;;;;;102.45;40.53;;;2.90;99.90;;;;;;5031508;28;20214;-74
2024/03/07 06:38:14;;;;;;;117.68;43.50;;;3.00;99.90;;;;;;5032578;28;20196;-74
2024/03/07 06:40:42;;;;;;;163.38;40.83;;;3.00;99.90;;;;;;5034363;28;20191;-75
2024/03/07 06:43:10;;;;;;;178.95;41.35;;;3.00;99.90;;;;;;5032471;28;20681;-74
2024/03/07 06:45:37;;;;;;;203.90;43.78;;;3.10;99.90;;;;;;5029719;28;20661;-74
2024/03/07 06:48:09;;;;;;;196.60;43.60;;;3.00;99.90;;;;;;5035950;28;20634;-76
2024/03/07 06:50:38;;;;;;;116.80;44.40;;;3.00;99.90;;;;;;5007926;28;20249;-74
2024/03/07 06:53:06;;;;;;;122.78;44.85;;;3.10;99.90;;;;;;5035117;28;20262;-74
2024/03/07 06:55:36;;;;;;;93.82;46.22;;;3.10;99.90;;;;;;5012893;28;20561;-76
2024/03/07 06:58:04;;;;;;;146.75;47.95;;;3.20;99.90;;;;;;5032772;28;20234;-75
2024/03/07 07:00:35;;;;;;;240.50;44.92;;;3.30;99.90;;;;;;5031132;28;20223;-75
2024/03/07 07:03:03;;;;;;;131.55;45.53;;;3.30;99.90;;;;;;5008131;28;20226;-75
2024/03/07 07:05:29;;;;;;;123.93;41.58;;;3.30;99.90;;;;;;5033400;28;20207;-75
2024/03/07 07:07:55;;;;;;;122.63;43.78;;;3.30;99.90;;;;;;5031298;28;20215;-75
2024/03/07 07:10:24;;;;;;;164.38;44.72;;;3.30;99.90;;;;;;5035762;28;20648;-75
2024/03/07 07:12:51;;;;;;;194.80;47.60;;;3.30;99.90;;;;;;5033713;28;20262;-73
2024/03/07 07:15:18;;;;;;;93.95;47.28;;;3.30;99.90;;;;;;5034936;28;20187;-76
2024/03/07 07:17:46;;;;;;;119.72;46.78;;;3.40;99.90;;;;;;5028501;28;20243;-75
2024/03/07 07:20:16;;;;;;;96.13;46.10;;;3.50;99.90;;;;;;5000304;28;20184;-75
2024/03/07 07:22:44;;;;;;;100.70;45.17;;;3.50;99.90;;;;;;5034465;28;20709;-74
2024/03/07 07:25:13;;;;;;;95.13;43.25;;;3.60;99.90;;;;;;5036802;28;20283;-76
2024/03/07 07:27:44;;;;;;;112.75;43.92;;;3.60;99.90;;;;;;5027947;28;20231;-74
2024/03/07 07:30:12;;;;;;;107.68;44.85;;;3.60;99.90;;;;;;5035297;28;20552;-76
2024/03/07 07:32:39;;;;;;;112.07;44.83;;;3.70;99.90;;;;;;5034326;28;20197;-75
2024/03/07 07:35:11;;;;;;;110.75;46.33;;;3.60;99.90;;;;;;5029555;28;20259;-74
2024/03/07 07:37:48;;;;;;;98.30;45.28;;;3.70;99.90;;;;;;5003502;28;20206;-75
2024/03/07 07:40:18;;;;;;;105.63;47.90;;;3.70;99.90;;;;;;5033277;28;20205;-74
2024/03/07 07:42:48;;;;;;;113.75;50.40;;;3.80;99.90;;;;;;5034738;28;20183;-74
2024/03/07 07:45:15;;;;;;;106.13;49.22;;;3.80;99.90;;;;;;5023120;28;20279;-75
2024/03/07 07:47:48;;;;;;;102.93;46.75;;;3.80;99.90;;;;;;5030138;28;20225;-75
2024/03/07 07:50:18;;;;;;;109.03;47.97;;;3.80;99.90;;;;;;5033151;28;20179;-74
2024/03/07 07:52:49;;;;;;;88.82;43.67;;;3.80;99.90;;;;;;5030879;28;20196;-75
2024/03/07 07:55:17;;;;;;;102.13;46.33;;;3.80;99.90;;;;;;5026358;28;20589;-75
2024/03/07 07:57:47;;;;;;;90.10;46.50;;;3.80;99.90;;;;;;5030062;28;20624;-73
2024/03/07 08:00:23;;;;;;;111.97;44.88;;;3.90;99.90;;;;;;5031045;28;20191;-75
2024/03/07 08:03:00;;;;;;;116.53;46.72;;;3.90;99.90;;;;;;5030836;28;20218;-76
2024/03/07 08:05:27;;;;;;;102.72;45.83;;;3.90;99.90;;;;;;5028857;28;20727;-74
2024/03/07 08:07:57;;;;;;;115.60;46.15;;;4.00;99.90;;;;;;5026028;28;20219;-75
2024/03/07 08:10:31;;;;;;;92.75;45.90;;;4.00;99.90;;;;;;5027311;28;20217;-73
2024/03/07 08:12:57;;;;;;;95.20;42.55;;;4.00;99.90;;;;;;5031482;28;20179;-74
2024/03/07 08:15:26;;;;;;;153.32;41.55;;;4.10;99.90;;;;;;5028071;28;20206;-74
2024/03/07 08:17:52;;;;;;;94.22;38.92;;;4.10;99.90;;;;;;5032663;28;20210;-75
2024/03/07 08:20:20;;;;;;;97.85;41.47;;;4.10;99.90;;;;;;5031474;28;20757;-74
2024/03/07 08:22:47;;;;;;;104.63;41.08;;;4.20;99.90;;;;;;5035063;28;20191;-74
2024/03/07 08:25:17;;;;;;;81.38;37.60;;;4.20;99.90;;;;;;5031490;28;20192;-75
2024/03/07 08:27:46;;;;;;;80.05;37.58;;;4.20;99.90;;;;;;5041413;28;20247;-73
2024/03/07 08:30:14;;;;;;;74.88;36.25;;;4.20;99.90;;;;;;5034434;28;20754;-73
2024/03/07 08:32:43;;;;;;;73.68;36.60;;;4.20;99.90;;;;;;5028739;28;20596;-73
2024/03/07 08:35:09;;;;;;;71.90;36.45;;;4.20;99.90;;;;;;5032117;28;20650;-74
2024/03/07 08:37:36;;;;;;;65.85;35.33;;;4.20;99.90;;;;;;5034836;28;20195;-74
2024/03/07 08:40:06;;;;;;;67.05;34.83;;;4.20;99.90;;;;;;5027672;28;20319;-75
2024/03/07 08:42:33;;;;;;;62.78;34.88;;;4.20;99.90;;;;;;5026401;28;20674;-75
2024/03/07 08:45:01;;;;;;;61.45;34.70;;;4.30;99.90;;;;;;5032738;28;20191;-76
2024/03/07 08:47:28;;;;;;;70.68;35.13;;;4.40;99.90;;;;;;5025295;28;21149;-76
2024/03/07 08:49:54;;;;;;;60.20;33.10;;;4.40;99.90;;;;;;5026444;28;20686;-74
2024/03/07 08:52:20;;;;;;;59.28;32.65;;;4.50;99.90;;;;;;5027476;28;20672;-74
2024/03/07 08:54:46;;;;;;;55.08;29.63;;;4.40;99.90;;;;;;5030189;28;20198;-75
2024/03/07 08:57:14;;;;;;;59.90;29.63;;;4.40;99.90;;;;;;5032310;28;20190;-75
2024/03/07 08:59:40;;;;;;;61.15;32.47;;;4.40;99.90;;;;;;5029898;28;20652;-75
2024/03/07 09:02:06;;;;;;;63.47;33.20;;;4.40;99.90;;;;;;5028622;28;20211;-75
2024/03/07 09:04:31;;;;;;;55.80;31.58;;;4.40;99.90;;;;;;5026682;28;20188;-75
2024/03/07 09:06:58;;;;;;;60.58;31.50;;;4.40;99.90;;;;;;5022709;28;21195;-75
2024/03/07 09:09:23;;;;;;;54.25;30.55;;;4.40;99.90;;;;;;5025018;28;20200;-75
2024/03/07 09:11:49;;;;;;;43.72;24.88;;;4.40;99.90;;;;;;5031245;28;20230;-74
2024/03/07 09:14:15;;;;;;;59.47;31.48;;;4.40;99.90;;;;;;5034156;28;20636;-74
2024/03/07 09:16:41;;;;;;;55.03;30.05;;;4.50;99.90;;;;;;5033992;28;20202;-73
2024/03/07 09:19:09;;;;;;;60.67;31.38;;;4.40;99.90;;;;;;5031778;28;20195;-74
2024/03/07 09:21:35;;;;;;;56.03;31.33;;;4.40;99.90;;;;;;5025361;28;20195;-74
2024/03/07 09:24:01;;;;;;;53.80;28.98;;;4.50;99.90;;;;;;5032906;28;20195;-74
2024/03/07 09:26:27;;;;;;;53.47;29.98;;;4.60;99.90;;;;;;5010244;28;20259;-74
2024/03/07 09:28:55;;;;;;;50.20;28.88;;;4.60;99.90;;;;;;5030916;28;20191;-73
2024/03/07 09:31:20;;;;;;;49.63;28.10;;;4.70;99.90;;;;;;5027431;28;20261;-75
2024/03/07 09:33:47;;;;;;;49.08;28.42;;;4.70;99.90;;;;;;5026249;28;20184;-79
2024/03/07 09:36:14;;;;;;;49.65;27.92;;;4.70;99.90;;;;;;5008022;28;20608;-73
2024/03/07 09:38:40;;;;;;;48.80;27.65;;;4.70;99.90;;;;;;5030261;28;20199;-74
2024/03/07 09:41:07;;;;;;;49.55;28.15;;;4.70;99.90;;;;;;5029861;28;20286;-74
2024/03/07 09:43:34;;;;;;;51.35;27.85;;;4.70;99.90;;;;;;5032015;28;20195;-73
2024/03/07 09:46:02;;;;;;;50.00;28.95;;;4.70;99.90;;;;;;5024440;28;20644;-73
2024/03/07 09:48:29;;;;;;;47.33;27.80;;;4.70;99.90;;;;;;5030336;28;20216;-74
2024/03/07 09:50:57;;;;;;;46.55;28.20;;;4.70;99.90;;;;;;5023608;28;20268;-74
2024/03/07 09:53:25;;;;;;;52.17;28.67;;;4.80;99.90;;;;;;5029823;28;20207;-73
2024/03/07 09:55:53;;;;;;;54.78;28.10;;;4.80;99.90;;;;;;5030067;28;20187;-73
2024/03/07 09:58:20;;;;;;;50.70;28.65;;;4.80;99.90;;;;;;5024894;28;20215;-74
2024/03/07 10:00:47;;;;;;;49.45;28.15;;;4.80;99.90;;;;;;5019310;28;20303;-71
2024/03/07 10:03:14;;;;;;;47.30;26.40;;;4.80;99.90;;;;;;5037389;28;20219;-72
2024/03/07 10:05:41;;;;;;;46.22;27.23;;;4.90;99.90;;;;;;5031741;28;20198;-72
2024/03/07 10:08:07;;;;;;;48.75;27.45;;;4.90;99.90;;;;;;5027606;28;20303;-73
2024/03/07 10:10:33;;;;;;;44.80;26.48;;;4.90;99.90;;;;;;5036438;28;20183;-72
2024/03/07 10:12:59;;;;;;;45.28;26.33;;;4.80;99.90;;;;;;5031715;28;20286;-72
2024/03/07 10:15:29;;;;;;;47.90;27.75;;;4.80;99.90;;;;;;5010794;28;20207;-74
2024/03/07 10:17:55;;;;;;;47.05;27.23;;;4.80;99.90;;;;;;5029754;28;20254;-73
2024/03/07 10:20:22;;;;;;;42.97;24.95;;;4.90;99.90;;;;;;5032663;28;20221;-73
2024/03/07 10:22:48;;;;;;;45.33;26.65;;;4.90;99.90;;;;;;5026975;28;20204;-73
2024/03/07 10:25:18;;;;;;;44.65;26.73;;;5.00;99.90;;;;;;5027506;28;20204;-73
2024/03/07 10:27:48;;;;;;;49.50;27.15;;;5.00;99.90;;;;;;5037281;28;20315;-74
2024/03/07 10:30:20;;;;;;;48.42;27.48;;;5.10;99.90;;;;;;5031929;28;20278;-73
2024/03/07 10:32:47;;;;;;;46.92;27.50;;;5.10;99.90;;;;;;5029600;28;20274;-73
2024/03/07 10:35:14;;;;;;;46.55;26.27;;;5.20;99.90;;;;;;5034142;28;20199;-73
2024/03/07 10:37:40;;;;;;;49.10;26.30;;;5.30;99.90;;;;;;5028078;28;20207;-74
2024/03/07 10:40:15;;;;;;;43.13;25.92;;;5.30;99.90;;;;;;5034723;28;20314;-74
2024/03/07 10:42:51;;;;;;;45.40;26.08;;;5.30;99.90;;;;;;5030849;28;20195;-74
2024/03/07 10:45:21;;;;;;;46.30;26.85;;;5.40;99.90;;;;;;5036521;28;20248;-74
2024/03/07 10:47:58;;;;;;;44.25;25.38;;;5.50;99.90;;;;;;5031556;28;20641;-75
2024/03/07 10:50:37;;;;;;;40.33;24.05;;;5.50;99.90;;;;;;5035971;28;20198;-75
2024/03/07 10:53:18;;;;;;;45.25;27.25;;;5.50;99.90;;;;;;5030667;28;20199;-74
2024/03/07 10:56:04;;;;;;;43.22;25.23;;;5.50;99.90;;;;;;5033409;28;20279;-74
2024/03/07 10:58:59;;;;;;;45.72;25.85;;;5.50;99.90;;;;;;5031832;28;20233;-72
2024/03/07 11:01:28;;;;;;;41.17;24.20;;;5.50;99.90;;;;;;5027461;28;20187;-73
2024/03/07 11:03:57;;;;;;;45.63;25.40;;;5.60;99.90;;;;;;5028400;28;20199;-74
2024/03/07 11:06:25;;;;;;;43.33;25.35;;;5.70;99.90;;;;;;5034337;28;21175;-74
2024/03/07 11:08:52;;;;;;;47.05;26.48;;;5.80;99.90;;;;;;5024681;28;20573;-75
2024/03/07 11:11:18;;;;;;;46.42;26.27;;;5.90;99.90;;;;;;5031008;28;20256;-73
2024/03/07 11:13:46;;;;;;;44.03;26.23;;;6.00;99.90;;;;;;5029319;28;20343;-74
2024/03/07 11:16:14;;;;;;;48.78;26.20;;;6.10;99.90;;;;;;5031357;28;20550;-73
2024/03/07 11:18:40;;;;;;;46.85;26.00;;;6.20;99.90;;;;;;5032782;28;20207;-72
2024/03/07 11:21:07;;;;;;;42.78;25.13;;;6.30;99.90;;;;;;5028920;28;20290;-74
2024/03/07 11:23:38;;;;;;;45.28;24.42;;;6.40;99.90;;;;;;5030868;28;20215;-72
2024/03/07 11:26:10;;;;;;;43.90;25.63;;;6.40;99.90;;;;;;5029102;28;21308;-72
2024/03/07 11:28:41;;;;;;;46.70;25.65;;;6.40;99.90;;;;;;5003474;28;21117;-72
2024/03/07 11:31:27;;;;;;;42.38;24.67;;;6.50;99.90;;;;;;5032400;28;20238;-74
2024/03/07 11:34:14;;;;;;;45.10;24.48;;;6.70;99.90;;;;;;5012620;28;20203;-74
2024/03/07 11:36:49;;;;;;;45.08;26.83;;;6.70;99.90;;;;;;5026069;28;20222;-73
2024/03/07 11:39:43;;;;;;;46.67;27.23;;;6.80;99.90;;;;;;5034792;28;20650;-74
2024/03/07 11:42:30;;;;;;;42.45;24.73;;;6.90;99.90;;;;;;5032123;28;20195;-73
2024/03/07 11:44:57;;;;;;;49.38;26.20;;;7.00;99.90;;;;;;5016243;28;20282;-74
2024/03/07 11:47:30;;;;;;;39.63;23.30;;;7.10;99.90;;;;;;4996319;28;20221;-72
2024/03/07 11:49:57;;;;;;;42.17;24.75;;;7.10;99.90;;;;;;5030896;28;20618;-74
2024/03/07 11:52:24;;;;;;;43.72;23.58;;;7.20;99.90;;;;;;5028306;28;20637;-74
2024/03/07 11:54:51;;;;;;;41.78;24.70;;;7.30;99.90;;;;;;5008712;28;20195;-74
2024/03/07 11:57:32;;;;;;;44.20;26.02;;;7.30;99.90;;;;;;5026846;28;20211;-74
2024/03/07 12:00:00;;;;;;;42.05;24.65;;;7.30;99.90;;;;;;5026022;28;20289;-76
2024/03/07 12:02:27;;;;;;;41.85;23.95;;;7.30;99.90;;;;;;5031260;28;20241;-75
2024/03/07 12:04:53;;;;;;;41.47;23.65;;;7.40;99.90;;;;;;5009547;28;20313;-74
2024/03/07 12:07:22;;;;;;;37.97;22.85;;;7.50;99.90;;;;;;5027101;28;20247;-74
2024/03/07 12:09:53;;;;;;;42.63;23.77;;;7.60;99.90;;;;;;5027605;28;20671;-74
2024/03/07 12:12:27;;;;;;;38.55;23.10;;;7.60;99.90;;;;;;5030540;28;20183;-71
2024/03/07 12:14:54;;;;;;;38.85;22.92;;;7.70;99.90;;;;;;5030482;28;20188;-75
2024/03/07 12:17:24;;;;;;;38.88;23.60;;;7.80;99.90;;;;;;5027682;28;20223;-72
2024/03/07 12:19:53;;;;;;;36.75;22.33;;;7.80;99.90;;;;;;5029784;28;20211;-76
2024/03/07 12:22:23;;;;;;;33.40;21.27;;;7.90;99.90;;;;;;5009441;28;20669;-75
2024/03/07 12:25:02;;;;;;;35.05;21.55;;;8.00;99.90;;;;;;5028388;28;20609;-75
2024/03/07 12:27:29;;;;;;;36.45;21.98;;;8.00;99.90;;;;;;5033383;28;20223;-72
2024/03/07 12:29:55;;;;;;;36.53;21.08;;;8.10;99.90;;;;;;5011093;28;20244;-74
2024/03/07 12:32:21;;;;;;;35.80;22.17;;;8.10;99.90;;;;;;5033716;28;20201;-72
2024/03/07 12:34:47;;;;;;;34.40;21.92;;;8.10;99.90;;;;;;5031381;28;20644;-74
2024/03/07 12:37:16;;;;;;;37.00;22.77;;;8.10;99.90;;;;;;5030426;28;20248;-73
2024/03/07 12:39:46;;;;;;;35.60;21.35;;;8.20;99.90;;;;;;5028395;28;20191;-73
2024/03/07 12:42:17;;;;;;;36.22;22.25;;;8.20;99.90;;;;;;5030073;28;20202;-73